KLAR

Laramie Regional Airport

Laramie, Wyoming, USA
METAR KLAR 100553Z AUTO 15008KT 10SM CLR M16/M17 A3032 RMK AO2 SLP340 I1000 I6000 T11561172 11111 21161 58003
Observed Flight Rules
Dec-10 @ 05:53 UTC (an hour ago) Visual Flight Rules
Wind Visibility Clouds
150° at 8 knots 10 miles
  • Clear skies
Temperatures Readings
Current -16°C / 3°F
Dewpoint -17°C / 1°F
Humidity 92%
Altimeter 30.32" Hg
Pressure 1034 hPa
Elevation 2216
METAR KLAR 100553Z AUTO 15008KT 10SM CLR M16/M17 A3032 RMK AO2 SLP340 I1000 I6000 T11561172 11111 21161 58003
Observed Flight Rules
Dec-10 @ 05:53 UTC
(an hour ago)
VFR
Wind Visibility
150° at 8 knots 10 miles
Clouds
  • Clear skies
Temperature Dewpoint
-16°C / 3°F -17°C / 1°F
Humidity Altimeter Pressure
92% 30.32" Hg 1034 hPa